createdAt,value
2019-05-07T00:02:19.833Z,4.72
2019-05-07T00:04:52.236Z,6.12
2019-05-07T00:07:23.550Z,5.55
2019-05-07T00:09:53.159Z,4.30
2019-05-07T00:12:23.083Z,4.42
2019-05-07T00:15:00.972Z,13.90
2019-05-07T00:17:24.010Z,4.40
2019-05-07T00:19:53.602Z,6.45
2019-05-07T00:22:23.269Z,5.92
2019-05-07T00:24:52.914Z,4.12
2019-05-07T00:27:22.748Z,4.37
2019-05-07T00:29:53.532Z,6.47
2019-05-07T00:32:23.279Z,4.95
2019-05-07T00:34:54.559Z,4.35
2019-05-07T00:37:27.335Z,6.00
2019-05-07T00:39:58.514Z,4.83
2019-05-07T00:42:29.754Z,5.12
2019-05-07T00:45:14.240Z,4.53
2019-05-07T00:47:33.027Z,4.35
2019-05-07T00:50:04.836Z,4.08
2019-05-07T00:52:34.534Z,4.08
2019-05-07T00:55:06.259Z,3.22
2019-05-07T00:57:35.975Z,3.45
2019-05-07T01:00:07.210Z,4.60
2019-05-07T01:02:36.903Z,5.28
2019-05-07T01:05:06.645Z,4.05
2019-05-07T01:07:36.173Z,5.45
2019-05-07T01:10:08.427Z,8.53
2019-05-07T01:12:38.033Z,5.90
2019-05-07T01:15:08.039Z,5.75
2019-05-07T01:17:37.676Z,6.17
2019-05-07T01:20:08.383Z,4.90
2019-05-07T01:22:38.028Z,6.45
2019-05-07T01:25:08.036Z,4.83
2019-05-07T01:27:37.672Z,5.05
2019-05-07T01:30:08.236Z,5.83
2019-05-07T01:32:39.556Z,4.33
2019-05-07T01:35:12.859Z,6.45
2019-05-07T01:37:43.770Z,4.92
2019-05-07T01:40:13.431Z,6.75
2019-05-07T01:42:43.069Z,6.05
2019-05-07T01:45:14.609Z,5.37
2019-05-07T01:47:44.339Z,4.67
2019-05-07T01:50:14.133Z,4.92
2019-05-07T01:52:43.771Z,5.97
2019-05-07T01:55:13.396Z,4.90
2019-05-07T01:57:43.075Z,5.37
2019-05-07T02:00:13.148Z,4.70
2019-05-07T02:02:45.354Z,5.35
2019-05-07T02:05:16.637Z,5.50
2019-05-07T02:07:47.860Z,4.87
2019-05-07T02:10:19.207Z,7.50
2019-05-07T02:12:48.851Z,4.60
2019-05-07T02:15:18.524Z,4.80
2019-05-07T02:17:48.213Z,4.60
2019-05-07T02:20:17.955Z,4.80
2019-05-07T02:22:47.689Z,6.80
2019-05-07T02:25:17.412Z,5.65
2019-05-07T02:27:47.063Z,6.25
2019-05-07T02:30:17.011Z,6.10
2019-05-07T02:32:46.625Z,5.25
2019-05-07T02:35:16.227Z,7.60
2019-05-07T02:37:52.319Z,7.97
2019-05-07T02:40:22.994Z,3.95
2019-05-07T02:42:53.983Z,4.72
2019-05-07T02:45:24.472Z,7.08
2019-05-07T02:47:54.136Z,3.90
2019-05-07T02:50:25.390Z,6.42
2019-05-07T02:52:56.638Z,3.98
2019-05-07T02:55:27.809Z,3.72
2019-05-07T02:57:57.405Z,6.95
2019-05-07T03:00:27.022Z,4.55
2019-05-07T03:02:57.183Z,5.95
2019-05-07T03:05:26.828Z,3.08
2019-05-07T03:07:56.466Z,5.00
2019-05-07T03:10:26.102Z,5.20
2019-05-07T03:12:55.762Z,5.70
2019-05-07T03:15:25.416Z,7.95
2019-05-07T03:17:55.008Z,4.03
2019-05-07T03:20:26.275Z,6.40
2019-05-07T03:22:57.470Z,2.95
2019-05-07T03:25:28.772Z,2.35
2019-05-07T03:27:59.371Z,6.00
2019-05-07T03:30:35.358Z,4.08
2019-05-07T03:33:07.153Z,6.30
2019-05-07T03:35:37.847Z,5.05
2019-05-07T03:38:07.763Z,4.22
2019-05-07T03:40:37.643Z,5.58
2019-05-07T03:43:07.227Z,5.75
2019-05-07T03:45:37.054Z,4.95
2019-05-07T03:48:06.828Z,4.08
2019-05-07T03:50:36.431Z,4.00
2019-05-07T03:53:06.116Z,5.83
2019-05-07T03:55:35.697Z,4.58
2019-05-07T03:58:06.772Z,6.40
2019-05-07T04:00:36.379Z,6.30
2019-05-07T04:03:06.059Z,5.15
2019-05-07T04:05:35.632Z,5.62
2019-05-07T04:08:05.204Z,7.47
2019-05-07T04:10:34.800Z,8.30
2019-05-07T04:13:04.707Z,7.65
2019-05-07T04:15:35.645Z,5.30
2019-05-07T04:18:05.324Z,3.13
2019-05-07T04:20:34.816Z,5.50
2019-05-07T04:23:04.553Z,4.17
2019-05-07T04:25:35.738Z,5.22
2019-05-07T04:28:06.908Z,9.48
2019-05-07T04:30:37.145Z,5.47
2019-05-07T04:33:08.396Z,7.15
2019-05-07T04:35:43.063Z,5.55
2019-05-07T04:38:13.536Z,7.75
2019-05-07T04:40:43.552Z,4.37
2019-05-07T04:43:13.846Z,5.33
2019-05-07T04:45:43.734Z,7.72
2019-05-07T04:48:14.266Z,4.72
2019-05-07T04:50:48.010Z,4.20
2019-05-07T04:53:17.886Z,4.10
2019-05-07T04:55:47.439Z,5.37
2019-05-07T04:58:17.073Z,4.72
2019-05-07T05:00:46.699Z,4.28
2019-05-07T05:03:17.996Z,5.92
2019-05-07T05:05:47.646Z,5.05
2019-05-07T05:08:23.847Z,4.80
2019-05-07T05:10:54.540Z,5.37
2019-05-07T05:13:24.633Z,5.28
2019-05-07T05:15:55.281Z,5.12
2019-05-07T05:18:24.850Z,5.25
2019-05-07T05:20:56.145Z,4.70
2019-05-07T05:23:28.945Z,3.77
2019-05-07T05:25:58.564Z,3.75
2019-05-07T05:28:28.158Z,6.03
2019-05-07T05:30:59.493Z,3.67
2019-05-07T05:33:35.357Z,5.15
2019-05-07T05:36:05.025Z,3.95
2019-05-07T05:38:34.705Z,4.37
2019-05-07T05:41:04.434Z,3.80
2019-05-07T05:43:36.101Z,3.72
2019-05-07T05:46:07.500Z,3.70
2019-05-07T05:48:37.193Z,4.05
2019-05-07T05:51:08.513Z,4.33
2019-05-07T05:53:38.400Z,5.25
2019-05-07T05:56:11.460Z,5.50
2019-05-07T05:58:43.097Z,4.53
2019-05-07T06:01:14.693Z,5.53
2019-05-07T06:03:46.969Z,4.60
2019-05-07T06:06:18.322Z,7.17
2019-05-07T06:08:49.671Z,4.83
2019-05-07T06:11:21.840Z,3.08
2019-05-07T06:13:53.229Z,5.60
2019-05-07T06:16:24.573Z,6.37
2019-05-07T06:18:55.901Z,3.67
2019-05-07T06:21:27.201Z,3.95
2019-05-07T06:23:58.464Z,3.10
2019-05-07T06:26:28.162Z,4.53
2019-05-07T06:28:57.861Z,5.15
2019-05-07T06:31:28.633Z,4.10
2019-05-07T06:33:58.379Z,4.12
2019-05-07T06:36:29.301Z,5.65
2019-05-07T06:39:01.947Z,5.17
2019-05-07T06:41:34.842Z,5.42
2019-05-07T06:44:06.162Z,5.97
2019-05-07T06:46:38.643Z,6.12
2019-05-07T06:49:07.222Z,6.80
2019-05-07T06:51:36.933Z,5.65
2019-05-07T06:54:06.614Z,7.50
2019-05-07T06:56:36.282Z,8.03
2019-05-07T06:59:07.797Z,8.95
2019-05-07T07:01:42.207Z,7.55
2019-05-07T07:04:13.233Z,10.25
2019-05-07T07:06:44.934Z,8.55
2019-05-07T07:09:16.210Z,8.70
2019-05-07T07:11:47.677Z,11.10
2019-05-07T07:14:17.530Z,7.30
2019-05-07T07:16:47.202Z,8.10
2019-05-07T07:19:16.950Z,11.10
2019-05-07T07:21:47.970Z,7.10
2019-05-07T07:24:17.623Z,8.85
2019-05-07T07:26:47.182Z,7.25
2019-05-07T07:29:19.530Z,9.00
2019-05-07T07:31:52.634Z,10.45
2019-05-07T07:34:22.904Z,9.40
2019-05-07T07:37:04.980Z,9.80
2019-05-07T07:39:25.558Z,9.10
2019-05-07T07:41:56.873Z,9.93
2019-05-07T07:44:26.542Z,10.60
2019-05-07T07:46:56.241Z,12.90
2019-05-07T07:49:25.886Z,8.48
2019-05-07T07:51:57.974Z,8.70
2019-05-07T07:54:27.656Z,7.85
2019-05-07T07:56:58.882Z,7.42
2019-05-07T07:59:29.629Z,10.03
2019-05-07T08:02:01.807Z,9.25
2019-05-07T08:04:31.979Z,9.00
2019-05-07T08:07:03.359Z,8.18
2019-05-07T08:09:35.769Z,13.10
2019-05-07T08:12:07.224Z,7.60
2019-05-07T08:14:37.250Z,9.03
2019-05-07T08:17:08.543Z,8.78
2019-05-07T08:19:38.200Z,6.78
2019-05-07T08:22:07.830Z,7.55
2019-05-07T08:24:37.519Z,6.50
2019-05-07T08:27:07.224Z,8.30
2019-05-07T08:29:36.922Z,8.25
2019-05-07T08:32:06.863Z,6.58
2019-05-07T08:34:38.143Z,8.00
2019-05-07T08:37:07.803Z,7.72
2019-05-07T08:39:37.464Z,5.75
2019-05-07T08:42:07.223Z,9.10
2019-05-07T08:44:38.532Z,7.72
2019-05-07T08:47:12.030Z,8.18
2019-05-07T08:49:43.417Z,6.47
2019-05-07T08:52:13.613Z,6.80
2019-05-07T08:54:43.330Z,8.30
2019-05-07T08:57:13.123Z,6.85
2019-05-07T08:59:56.634Z,6.78
2019-05-07T09:02:14.118Z,9.25
2019-05-07T09:04:43.676Z,8.98
2019-05-07T09:07:13.283Z,10.82
2019-05-07T09:09:43.178Z,11.78
2019-05-07T09:12:13.443Z,8.83
2019-05-07T09:14:43.031Z,10.20
2019-05-07T09:17:12.969Z,11.60
2019-05-07T09:23:42.429Z,11.25
2019-05-07T09:33:36.029Z,9.78
2019-05-07T09:43:32.435Z,7.08
2019-05-07T09:46:12.530Z,8.20
2019-05-07T09:49:26.146Z,8.93
2019-05-07T09:52:28.072Z,9.88
2019-05-07T09:55:48.044Z,8.80
2019-05-07T09:58:35.629Z,8.13
2019-05-07T10:01:21.147Z,10.08
2019-05-07T10:11:22.458Z,7.83
2019-05-07T10:42:18.820Z,8.75
2019-05-07T10:45:44.982Z,7.72
2019-05-07T10:59:03.085Z,8.35
2019-05-07T11:01:58.184Z,10.10
2019-05-07T11:05:02.431Z,10.28
2019-05-07T11:14:14.530Z,9.35
2019-05-07T11:19:39.214Z,7.90
2019-05-07T11:22:08.950Z,8.38
2019-05-07T11:24:38.661Z,7.08
2019-05-07T11:27:08.237Z,8.83
2019-05-07T11:29:39.166Z,7.10
2019-05-07T11:32:08.730Z,9.73
2019-05-07T11:34:42.124Z,6.85
2019-05-07T11:37:11.913Z,8.55
2019-05-07T11:39:42.767Z,8.03
2019-05-07T11:42:14.079Z,9.25
2019-05-07T11:44:43.725Z,9.20
2019-05-07T11:47:15.044Z,10.30
2019-05-07T11:49:46.325Z,8.63
2019-05-07T11:52:16.117Z,7.28
2019-05-07T11:54:45.824Z,10.15
2019-05-07T11:57:15.407Z,10.55
2019-05-07T11:59:46.110Z,9.83
2019-05-07T12:02:15.878Z,8.25
2019-05-07T12:04:45.611Z,10.93
2019-05-07T12:07:15.297Z,9.38
2019-05-07T12:09:44.918Z,9.05
2019-05-07T12:12:14.632Z,10.68
2019-05-07T12:14:44.541Z,10.48
2019-05-07T12:17:14.160Z,8.25
2019-05-07T12:19:43.994Z,9.90
2019-05-07T12:22:15.299Z,7.70
2019-05-07T12:24:45.787Z,8.63
2019-05-07T12:27:15.661Z,8.33
2019-05-07T12:29:45.269Z,8.95
2019-05-07T12:32:16.538Z,11.08
2019-05-07T12:34:47.842Z,9.95
2019-05-07T12:37:17.542Z,11.53
2019-05-07T12:39:47.228Z,10.25
2019-05-07T12:42:16.978Z,10.72
2019-05-07T12:44:46.645Z,9.88
2019-05-07T12:47:16.401Z,11.08
2019-05-07T12:49:46.327Z,12.30
2019-05-07T12:52:17.625Z,10.23
2019-05-07T12:54:47.422Z,8.58
2019-05-07T12:57:17.073Z,8.70
2019-05-07T12:59:49.318Z,8.70
2019-05-07T13:02:36.453Z,6.85
2019-05-07T13:04:52.141Z,9.78
2019-05-07T13:07:22.345Z,8.28
2019-05-07T13:09:52.432Z,10.32
2019-05-07T13:12:22.105Z,8.23
2019-05-07T13:14:52.980Z,7.03
2019-05-07T13:17:22.653Z,8.15
2019-05-07T13:19:52.602Z,6.42
2019-05-07T13:22:22.673Z,10.25
2019-05-07T13:24:52.969Z,10.40
2019-05-07T13:27:22.960Z,6.87
2019-05-07T13:29:53.253Z,8.43
2019-05-07T13:32:24.718Z,10.05
2019-05-07T13:34:54.406Z,9.50
2019-05-07T13:37:25.658Z,6.95
2019-05-07T13:39:56.835Z,8.23
2019-05-07T13:42:28.091Z,8.45
2019-05-07T13:45:02.646Z,8.08
2019-05-07T13:47:33.111Z,9.83
2019-05-07T13:50:03.242Z,11.65
2019-05-07T13:52:34.049Z,8.53
2019-05-07T13:55:04.737Z,6.83
2019-05-07T13:57:34.318Z,7.83
2019-05-07T14:00:06.618Z,8.70
2019-05-07T14:02:36.991Z,10.35
2019-05-07T14:05:09.773Z,8.50
2019-05-07T14:07:41.667Z,8.83
2019-05-07T14:10:12.748Z,8.53
2019-05-07T14:12:42.761Z,7.47
2019-05-07T14:15:14.528Z,8.08
2019-05-07T14:17:44.228Z,8.60
2019-05-07T14:20:14.533Z,7.60
2019-05-07T14:22:44.229Z,8.00
2019-05-07T14:25:13.970Z,9.28
2019-05-07T14:27:43.620Z,8.73
2019-05-07T14:30:13.999Z,13.53
2019-05-07T14:32:44.910Z,8.93
2019-05-07T14:35:17.235Z,8.20
2019-05-07T14:37:48.558Z,8.50
2019-05-07T14:40:18.526Z,9.25
2019-05-07T14:42:49.751Z,9.20
2019-05-07T14:45:23.581Z,6.58
2019-05-07T14:47:52.199Z,9.30
2019-05-07T14:50:22.578Z,7.45
2019-05-07T14:52:55.254Z,8.60
2019-05-07T14:55:23.707Z,9.33
2019-05-07T14:57:53.426Z,8.65
2019-05-07T15:00:23.070Z,10.03
2019-05-07T15:02:52.773Z,9.80
2019-05-07T15:05:22.534Z,8.50
2019-05-07T15:08:07.062Z,8.00
2019-05-07T15:10:24.470Z,9.73
2019-05-07T15:12:53.979Z,9.85
2019-05-07T15:15:23.590Z,7.65
2019-05-07T15:17:55.670Z,8.43
2019-05-07T15:20:26.022Z,8.75
2019-05-07T15:22:57.253Z,8.03
2019-05-07T15:25:26.864Z,9.30
2019-05-07T15:27:57.520Z,9.90
2019-05-07T15:30:28.730Z,8.45
2019-05-07T15:33:08.251Z,8.33
2019-05-07T15:35:38.348Z,8.80
2019-05-07T15:38:08.159Z,8.45
2019-05-07T15:40:37.848Z,9.35
2019-05-07T15:43:07.546Z,11.12
2019-05-07T15:45:37.237Z,8.15
2019-05-07T15:48:06.928Z,8.73
2019-05-07T15:50:36.575Z,9.88
2019-05-07T15:53:07.833Z,9.75
2019-05-07T15:55:37.381Z,9.83
2019-05-07T15:58:08.256Z,9.78
2019-05-07T16:00:38.496Z,8.65
2019-05-07T16:03:11.902Z,9.78
2019-05-07T16:05:42.466Z,10.60
2019-05-07T16:08:14.110Z,8.13
2019-05-07T16:10:43.737Z,12.23
2019-05-07T16:13:15.157Z,8.58
2019-05-07T16:15:44.803Z,8.13
2019-05-07T16:18:14.568Z,7.65
2019-05-07T16:20:44.744Z,9.65
2019-05-07T16:23:17.863Z,8.38
2019-05-07T16:25:45.856Z,8.48
2019-05-07T16:28:15.524Z,8.65
2019-05-07T16:30:45.187Z,7.33
2019-05-07T16:33:16.087Z,10.23
2019-05-07T16:35:45.755Z,7.42
2019-05-07T16:38:17.984Z,6.80
2019-05-07T16:40:46.778Z,7.83
2019-05-07T16:43:16.875Z,6.65
2019-05-07T16:45:46.636Z,10.60
2019-05-07T16:48:16.299Z,8.10
2019-05-07T16:50:45.958Z,7.92
2019-05-07T16:53:26.705Z,10.05
2019-05-07T16:55:48.558Z,7.87
2019-05-07T16:58:20.701Z,8.40
2019-05-07T17:00:52.980Z,7.85
2019-05-07T17:03:24.470Z,10.20
2019-05-07T17:05:54.164Z,6.80
2019-05-07T17:08:26.264Z,8.95
2019-05-07T17:10:55.987Z,7.00
2019-05-07T17:13:25.722Z,7.95
2019-05-07T17:15:56.618Z,8.93
2019-05-07T17:18:27.620Z,7.43
2019-05-07T17:20:58.681Z,7.93
2019-05-07T17:23:42.825Z,6.28
2019-05-07T17:26:01.246Z,7.37
2019-05-07T17:28:31.953Z,9.55
2019-05-07T17:31:03.091Z,6.77
2019-05-07T17:33:34.038Z,8.25
2019-05-07T17:36:03.571Z,8.23
2019-05-07T17:38:36.347Z,9.05
2019-05-07T17:41:13.726Z,9.00
2019-05-07T17:43:37.286Z,8.58
2019-05-07T17:46:08.151Z,13.93
2019-05-07T17:48:37.706Z,8.25
2019-05-07T17:51:07.533Z,8.95
2019-05-07T17:53:38.675Z,9.13
2019-05-07T17:56:08.298Z,8.15
2019-05-07T17:58:38.084Z,7.72
2019-05-07T18:01:07.699Z,6.83
2019-05-07T18:03:39.080Z,9.68
2019-05-07T18:06:08.701Z,6.97
2019-05-07T18:08:38.392Z,7.17
2019-05-07T18:11:20.190Z,8.48
2019-05-07T18:13:39.341Z,8.15
2019-05-07T18:16:12.147Z,7.62
2019-05-07T18:18:43.207Z,5.47
2019-05-07T18:21:12.959Z,7.30
2019-05-07T18:23:42.560Z,9.00
2019-05-07T18:26:26.329Z,7.67
2019-05-07T18:28:45.191Z,5.47
2019-05-07T18:31:15.932Z,6.87
2019-05-07T18:33:47.267Z,6.87
2019-05-07T18:36:17.035Z,8.08
2019-05-07T18:38:46.601Z,6.33
2019-05-07T18:41:16.111Z,9.18
2019-05-07T18:43:48.038Z,8.58
2019-05-07T18:48:47.462Z,6.60
2019-05-07T18:51:17.463Z,6.25
2019-05-07T18:53:46.965Z,6.33
2019-05-07T18:56:16.531Z,6.05
2019-05-07T18:58:46.266Z,6.55
2019-05-07T19:01:17.680Z,7.75
2019-05-07T19:03:47.687Z,7.97
2019-05-07T19:06:17.298Z,9.48
2019-05-07T19:08:47.918Z,7.65
2019-05-07T19:11:17.579Z,9.28
2019-05-07T19:13:47.234Z,7.35
2019-05-07T19:16:18.158Z,7.50
2019-05-07T19:18:47.825Z,7.20
2019-05-07T19:21:17.926Z,6.28
2019-05-07T19:23:49.180Z,6.62
2019-05-07T19:26:19.162Z,10.13
2019-05-07T19:28:48.721Z,8.08
2019-05-07T19:31:18.440Z,6.80
2019-05-07T19:33:48.063Z,7.35
2019-05-07T19:36:17.732Z,8.53
2019-05-07T19:38:47.404Z,6.83
2019-05-07T19:41:17.039Z,11.97
2019-05-07T19:43:47.784Z,11.57
2019-05-07T19:46:17.416Z,6.47
2019-05-07T19:48:46.988Z,7.37
2019-05-07T19:51:16.630Z,7.50
2019-05-07T19:53:46.224Z,7.37
2019-05-07T19:56:18.507Z,9.13
2019-05-07T19:58:48.123Z,9.10
2019-05-07T20:01:19.487Z,7.67
2019-05-07T20:03:49.157Z,8.68
2019-05-07T20:06:18.926Z,9.78
2019-05-07T20:08:48.649Z,9.48
2019-05-07T20:11:18.451Z,8.48
2019-05-07T20:13:48.084Z,7.47
2019-05-07T20:16:19.472Z,9.53
2019-05-07T20:18:49.172Z,8.93
2019-05-07T20:21:19.372Z,11.93
2019-05-07T20:23:49.038Z,12.15
2019-05-07T20:26:18.670Z,7.00
2019-05-07T20:28:48.267Z,7.40
2019-05-07T20:31:17.986Z,7.58
2019-05-07T20:33:52.973Z,9.40
2019-05-07T20:36:21.686Z,9.35
2019-05-07T20:38:52.103Z,10.35
2019-05-07T20:41:23.267Z,9.53
2019-05-07T20:43:53.214Z,10.75
2019-05-07T20:46:22.936Z,10.15
2019-05-07T20:48:54.010Z,9.85
2019-05-07T20:51:23.685Z,10.80
2019-05-07T20:53:56.464Z,10.50
2019-05-07T20:56:27.729Z,9.10
2019-05-07T20:58:57.373Z,10.63
2019-05-07T21:01:27.022Z,10.18
2019-05-07T21:03:56.741Z,11.57
2019-05-07T21:06:26.542Z,10.15
2019-05-07T21:08:56.123Z,10.20
2019-05-07T21:11:25.695Z,11.15
2019-05-07T21:13:55.271Z,9.73
2019-05-07T21:16:24.882Z,11.40
2019-05-07T21:18:54.530Z,9.18
2019-05-07T21:21:24.166Z,9.43
2019-05-07T21:23:53.837Z,9.43
2019-05-07T21:26:23.479Z,13.30
2019-05-07T21:28:53.090Z,10.95
2019-05-07T21:31:22.963Z,13.03
2019-05-07T21:33:52.598Z,12.65
2019-05-07T21:36:22.782Z,11.95
2019-05-07T21:38:52.725Z,11.53
2019-05-07T21:41:22.848Z,13.03
2019-05-07T21:43:54.232Z,13.70
2019-05-07T21:46:23.932Z,10.08
2019-05-07T21:48:53.805Z,9.88
2019-05-07T21:51:23.707Z,9.93
2019-05-07T21:53:54.908Z,9.40
2019-05-07T21:56:26.598Z,11.08
2019-05-07T21:58:59.092Z,11.28
2019-05-07T22:01:32.586Z,11.18
2019-05-07T22:04:01.961Z,9.38
2019-05-07T22:06:31.654Z,8.20
2019-05-07T22:09:02.028Z,13.48
2019-05-07T22:11:33.522Z,14.10
2019-05-07T22:14:03.219Z,8.73
2019-05-07T22:16:33.015Z,12.03
2019-05-07T22:19:04.002Z,11.78
2019-05-07T22:21:34.274Z,10.68
2019-05-07T22:24:03.928Z,10.43
2019-05-07T22:26:33.613Z,11.55
2019-05-07T22:29:03.358Z,10.28
2019-05-07T22:31:34.645Z,11.60
2019-05-07T22:34:06.240Z,11.75
2019-05-07T22:36:35.899Z,12.20
2019-05-07T22:39:08.047Z,11.15
2019-05-07T22:41:39.285Z,10.78
2019-05-07T22:44:11.830Z,11.83
2019-05-07T22:46:42.139Z,11.00
2019-05-07T22:49:12.384Z,11.57
2019-05-07T22:51:42.164Z,13.32
2019-05-07T22:54:11.941Z,13.20
2019-05-07T22:56:44.109Z,9.58
2019-05-07T22:59:14.746Z,13.65
2019-05-07T23:01:44.407Z,12.80
2019-05-07T23:04:15.442Z,10.05
2019-05-07T23:06:46.729Z,9.65
2019-05-07T23:09:16.342Z,11.97
2019-05-07T23:11:45.991Z,9.25
2019-05-07T23:14:18.204Z,9.68
2019-05-07T23:16:47.848Z,10.08
2019-05-07T23:19:17.459Z,11.70
2019-05-07T23:21:47.118Z,12.75
2019-05-07T23:24:16.762Z,12.18
2019-05-07T23:26:50.257Z,10.50
2019-05-07T23:29:17.725Z,9.00
2019-05-07T23:31:52.858Z,11.48
2019-05-07T23:34:22.064Z,12.07
2019-05-07T23:36:53.427Z,13.38
2019-05-07T23:39:24.959Z,10.50
2019-05-07T23:42:02.132Z,7.55
2019-05-07T23:44:31.328Z,12.85
2019-05-07T23:47:02.811Z,9.55
2019-05-07T23:49:32.345Z,14.05
2019-05-07T23:52:02.543Z,14.73
2019-05-07T23:54:32.206Z,12.40
2019-05-07T23:57:06.888Z,13.83
2019-05-07T23:59:33.100Z,13.93
